sensor_id;sensor_type;location;lat;lon;timestamp;P1;durP1;ratioP1;P2;durP2;ratioP2
59440;SDS011;45245;51.538;11.870;2022-08-06T00:02:05;3.63;;;1.92;;
59440;SDS011;45245;51.538;11.870;2022-08-06T00:04:30;2.17;;;1.80;;
59440;SDS011;45245;51.538;11.870;2022-08-06T00:06:56;2.63;;;1.48;;
59440;SDS011;45245;51.538;11.870;2022-08-06T00:09:22;2.90;;;1.45;;
59440;SDS011;45245;51.538;11.870;2022-08-06T00:11:47;1.60;;;1.50;;
59440;SDS011;45245;51.538;11.870;2022-08-06T00:14:13;2.50;;;1.70;;
59440;SDS011;45245;51.538;11.870;2022-08-06T00:16:38;1.48;;;1.38;;
59440;SDS011;45245;51.538;11.870;2022-08-06T00:19:04;1.60;;;1.50;;
59440;SDS011;45245;51.538;11.870;2022-08-06T00:21:29;2.33;;;1.50;;
59440;SDS011;45245;51.538;11.870;2022-08-06T00:23:55;1.98;;;1.42;;
59440;SDS011;45245;51.538;11.870;2022-08-06T00:26:21;2.25;;;1.50;;
59440;SDS011;45245;51.538;11.870;2022-08-06T00:28:47;1.33;;;1.23;;
59440;SDS011;45245;51.538;11.870;2022-08-06T00:31:13;2.35;;;1.45;;
59440;SDS011;45245;51.538;11.870;2022-08-06T00:33:39;1.80;;;1.42;;
59440;SDS011;45245;51.538;11.870;2022-08-06T00:36:06;2.28;;;1.40;;
59440;SDS011;45245;51.538;11.870;2022-08-06T00:38:32;1.83;;;1.20;;
59440;SDS011;45245;51.538;11.870;2022-08-06T00:40:57;1.80;;;1.15;;
59440;SDS011;45245;51.538;11.870;2022-08-06T00:43:22;1.25;;;1.15;;
59440;SDS011;45245;51.538;11.870;2022-08-06T00:45:48;2.65;;;1.27;;
59440;SDS011;45245;51.538;11.870;2022-08-06T00:48:13;1.85;;;1.27;;
59440;SDS011;45245;51.538;11.870;2022-08-06T00:50:38;1.58;;;1.48;;
59440;SDS011;45245;51.538;11.870;2022-08-06T00:53:04;3.22;;;1.40;;
59440;SDS011;45245;51.538;11.870;2022-08-06T00:55:30;1.52;;;1.27;;
59440;SDS011;45245;51.538;11.870;2022-08-06T00:57:55;1.40;;;1.30;;
59440;SDS011;45245;51.538;11.870;2022-08-06T01:00:21;1.20;;;1.00;;
59440;SDS011;45245;51.538;11.870;2022-08-06T01:02:47;2.45;;;1.30;;
59440;SDS011;45245;51.538;11.870;2022-08-06T01:05:13;1.27;;;1.17;;
59440;SDS011;45245;51.538;11.870;2022-08-06T01:07:38;3.05;;;1.35;;
59440;SDS011;45245;51.538;11.870;2022-08-06T01:10:04;1.08;;;1.08;;
59440;SDS011;45245;51.538;11.870;2022-08-06T01:12:29;1.52;;;1.40;;
59440;SDS011;45245;51.538;11.870;2022-08-06T01:14:54;1.55;;;1.27;;
59440;SDS011;45245;51.538;11.870;2022-08-06T01:17:25;1.33;;;1.23;;
59440;SDS011;45245;51.538;11.870;2022-08-06T01:28:28;2.33;;;1.20;;
59440;SDS011;45245;51.538;11.870;2022-08-06T01:31:01;1.48;;;1.38;;
59440;SDS011;45245;51.538;11.870;2022-08-06T01:33:30;2.65;;;1.60;;
59440;SDS011;45245;51.538;11.870;2022-08-06T01:36:01;2.40;;;1.10;;
59440;SDS011;45245;51.538;11.870;2022-08-06T01:38:33;1.80;;;1.23;;
59440;SDS011;45245;51.538;11.870;2022-08-06T01:41:01;1.52;;;1.42;;
59440;SDS011;45245;51.538;11.870;2022-08-06T01:43:28;1.77;;;1.50;;
59440;SDS011;45245;51.538;11.870;2022-08-06T01:45:56;1.85;;;1.08;;
59440;SDS011;45245;51.538;11.870;2022-08-06T01:48:23;1.10;;;1.10;;
59440;SDS011;45245;51.538;11.870;2022-08-06T01:50:50;1.65;;;1.10;;
59440;SDS011;45245;51.538;11.870;2022-08-06T01:53:19;2.65;;;1.75;;
59440;SDS011;45245;51.538;11.870;2022-08-06T01:55:49;1.17;;;1.10;;
59440;SDS011;45245;51.538;11.870;2022-08-06T01:58:17;2.45;;;1.63;;
59440;SDS011;45245;51.538;11.870;2022-08-06T02:00:46;2.90;;;1.38;;
59440;SDS011;45245;51.538;11.870;2022-08-06T02:03:15;1.10;;;1.08;;
59440;SDS011;45245;51.538;11.870;2022-08-06T02:05:43;1.38;;;1.23;;
59440;SDS011;45245;51.538;11.870;2022-08-06T02:08:10;1.30;;;1.20;;
59440;SDS011;45245;51.538;11.870;2022-08-06T02:10:37;1.55;;;1.00;;
59440;SDS011;45245;51.538;11.870;2022-08-06T02:13:03;1.58;;;1.38;;
59440;SDS011;45245;51.538;11.870;2022-08-06T02:15:30;1.50;;;1.40;;
59440;SDS011;45245;51.538;11.870;2022-08-06T02:17:56;1.48;;;1.15;;
59440;SDS011;45245;51.538;11.870;2022-08-06T02:20:28;2.00;;;1.27;;
59440;SDS011;45245;51.538;11.870;2022-08-06T02:22:56;1.58;;;1.38;;
59440;SDS011;45245;51.538;11.870;2022-08-06T02:25:22;1.98;;;1.23;;
59440;SDS011;45245;51.538;11.870;2022-08-06T02:27:49;2.30;;;1.27;;
59440;SDS011;45245;51.538;11.870;2022-08-06T02:30:15;2.58;;;1.38;;
59440;SDS011;45245;51.538;11.870;2022-08-06T02:32:41;2.20;;;1.35;;
59440;SDS011;45245;51.538;11.870;2022-08-06T02:35:07;1.83;;;0.90;;
59440;SDS011;45245;51.538;11.870;2022-08-06T02:37:35;1.13;;;1.13;;
59440;SDS011;45245;51.538;11.870;2022-08-06T02:40:12;2.38;;;1.17;;
59440;SDS011;45245;51.538;11.870;2022-08-06T02:42:43;1.48;;;1.38;;
59440;SDS011;45245;51.538;11.870;2022-08-06T02:45:18;2.20;;;1.40;;
59440;SDS011;45245;51.538;11.870;2022-08-06T02:48:02;1.42;;;1.10;;
59440;SDS011;45245;51.538;11.870;2022-08-06T02:50:37;1.48;;;1.23;;
59440;SDS011;45245;51.538;11.870;2022-08-06T02:53:06;1.67;;;1.48;;
59440;SDS011;45245;51.538;11.870;2022-08-06T02:55:35;2.05;;;1.23;;
59440;SDS011;45245;51.538;11.870;2022-08-06T02:58:13;1.83;;;1.48;;
59440;SDS011;45245;51.538;11.870;2022-08-06T03:00:41;1.42;;;1.13;;
59440;SDS011;45245;51.538;11.870;2022-08-06T03:03:07;1.80;;;1.00;;
59440;SDS011;45245;51.538;11.870;2022-08-06T03:05:35;1.50;;;1.10;;
59440;SDS011;45245;51.538;11.870;2022-08-06T03:08:01;1.23;;;1.13;;
59440;SDS011;45245;51.538;11.870;2022-08-06T03:10:28;1.90;;;1.20;;
59440;SDS011;45245;51.538;11.870;2022-08-06T03:12:54;1.50;;;1.40;;
59440;SDS011;45245;51.538;11.870;2022-08-06T03:15:21;1.17;;;1.13;;
59440;SDS011;45245;51.538;11.870;2022-08-06T03:17:48;1.50;;;1.40;;
59440;SDS011;45245;51.538;11.870;2022-08-06T03:20:15;2.63;;;1.17;;
59440;SDS011;45245;51.538;11.870;2022-08-06T03:22:44;2.40;;;1.30;;
59440;SDS011;45245;51.538;11.870;2022-08-06T03:25:12;1.88;;;1.17;;
59440;SDS011;45245;51.538;11.870;2022-08-06T03:27:38;1.23;;;1.20;;
59440;SDS011;45245;51.538;11.870;2022-08-06T03:30:04;1.88;;;1.20;;
59440;SDS011;45245;51.538;11.870;2022-08-06T03:32:31;1.60;;;1.50;;
59440;SDS011;45245;51.538;11.870;2022-08-06T03:34:57;1.35;;;1.15;;
59440;SDS011;45245;51.538;11.870;2022-08-06T03:37:23;2.15;;;1.23;;
59440;SDS011;45245;51.538;11.870;2022-08-06T03:39:48;1.90;;;1.38;;
59440;SDS011;45245;51.538;11.870;2022-08-06T03:42:14;1.52;;;1.10;;
59440;SDS011;45245;51.538;11.870;2022-08-06T03:44:40;1.50;;;1.40;;
59440;SDS011;45245;51.538;11.870;2022-08-06T03:47:10;1.92;;;1.10;;
59440;SDS011;45245;51.538;11.870;2022-08-06T03:49:40;1.83;;;1.20;;
59440;SDS011;45245;51.538;11.870;2022-08-06T03:52:32;1.40;;;1.10;;
59440;SDS011;45245;51.538;11.870;2022-08-06T03:55:24;1.63;;;1.23;;
59440;SDS011;45245;51.538;11.870;2022-08-06T03:57:52;2.25;;;1.55;;
59440;SDS011;45245;51.538;11.870;2022-08-06T04:00:21;1.52;;;1.42;;
59440;SDS011;45245;51.538;11.870;2022-08-06T04:02:50;2.45;;;1.10;;
59440;SDS011;45245;51.538;11.870;2022-08-06T04:05:18;2.30;;;1.70;;
59440;SDS011;45245;51.538;11.870;2022-08-06T04:07:46;1.42;;;1.30;;
59440;SDS011;45245;51.538;11.870;2022-08-06T04:10:12;1.67;;;1.38;;
59440;SDS011;45245;51.538;11.870;2022-08-06T04:12:38;1.95;;;1.25;;
59440;SDS011;45245;51.538;11.870;2022-08-06T04:15:04;1.67;;;1.20;;
59440;SDS011;45245;51.538;11.870;2022-08-06T04:17:30;1.40;;;1.30;;
59440;SDS011;45245;51.538;11.870;2022-08-06T04:19:56;3.63;;;1.98;;
59440;SDS011;45245;51.538;11.870;2022-08-06T04:22:23;1.60;;;1.50;;
59440;SDS011;45245;51.538;11.870;2022-08-06T04:24:48;2.13;;;1.30;;
59440;SDS011;45245;51.538;11.870;2022-08-06T04:27:13;1.65;;;1.13;;
59440;SDS011;45245;51.538;11.870;2022-08-06T04:29:39;1.38;;;1.20;;
59440;SDS011;45245;51.538;11.870;2022-08-06T04:32:05;1.40;;;1.30;;
59440;SDS011;45245;51.538;11.870;2022-08-06T04:34:31;1.63;;;1.52;;
59440;SDS011;45245;51.538;11.870;2022-08-06T04:36:59;1.70;;;1.60;;
59440;SDS011;45245;51.538;11.870;2022-08-06T04:39:25;1.58;;;1.33;;
59440;SDS011;45245;51.538;11.870;2022-08-06T04:41:51;1.30;;;1.15;;
59440;SDS011;45245;51.538;11.870;2022-08-06T04:44:17;2.13;;;1.58;;
59440;SDS011;45245;51.538;11.870;2022-08-06T04:46:43;1.50;;;1.40;;
59440;SDS011;45245;51.538;11.870;2022-08-06T04:49:13;1.40;;;1.30;;
59440;SDS011;45245;51.538;11.870;2022-08-06T04:51:45;1.27;;;1.17;;
59440;SDS011;45245;51.538;11.870;2022-08-06T04:54:11;2.08;;;1.50;;
59440;SDS011;45245;51.538;11.870;2022-08-06T04:56:37;1.60;;;1.50;;
59440;SDS011;45245;51.538;11.870;2022-08-06T04:59:03;1.50;;;1.40;;
59440;SDS011;45245;51.538;11.870;2022-08-06T05:01:29;2.63;;;1.60;;
59440;SDS011;45245;51.538;11.870;2022-08-06T05:03:55;1.58;;;1.48;;
59440;SDS011;45245;51.538;11.870;2022-08-06T05:06:25;1.40;;;1.30;;
59440;SDS011;45245;51.538;11.870;2022-08-06T05:09:00;1.27;;;1.27;;
59440;SDS011;45245;51.538;11.870;2022-08-06T05:11:29;2.65;;;2.17;;
59440;SDS011;45245;51.538;11.870;2022-08-06T05:13:57;1.70;;;1.50;;
59440;SDS011;45245;51.538;11.870;2022-08-06T05:16:23;1.60;;;1.33;;
59440;SDS011;45245;51.538;11.870;2022-08-06T05:18:53;1.73;;;1.60;;
59440;SDS011;45245;51.538;11.870;2022-08-06T05:21:21;1.55;;;1.45;;
59440;SDS011;45245;51.538;11.870;2022-08-06T05:23:49;1.63;;;1.40;;
59440;SDS011;45245;51.538;11.870;2022-08-06T05:26:16;1.48;;;1.20;;
59440;SDS011;45245;51.538;11.870;2022-08-06T05:28:41;1.85;;;1.75;;
59440;SDS011;45245;51.538;11.870;2022-08-06T05:31:07;2.35;;;1.40;;
59440;SDS011;45245;51.538;11.870;2022-08-06T05:33:33;1.48;;;1.38;;
59440;SDS011;45245;51.538;11.870;2022-08-06T05:36:03;1.55;;;1.45;;
59440;SDS011;45245;51.538;11.870;2022-08-06T05:38:32;2.35;;;1.48;;
59440;SDS011;45245;51.538;11.870;2022-08-06T05:40:59;1.60;;;1.50;;
59440;SDS011;45245;51.538;11.870;2022-08-06T05:43:24;1.88;;;1.70;;
59440;SDS011;45245;51.538;11.870;2022-08-06T05:45:51;1.75;;;1.30;;
59440;SDS011;45245;51.538;11.870;2022-08-06T05:48:19;2.67;;;1.35;;
59440;SDS011;45245;51.538;11.870;2022-08-06T05:50:56;1.80;;;1.33;;
59440;SDS011;45245;51.538;11.870;2022-08-06T05:53:30;1.30;;;1.20;;
59440;SDS011;45245;51.538;11.870;2022-08-06T05:56:02;1.40;;;1.30;;
59440;SDS011;45245;51.538;11.870;2022-08-06T05:58:33;1.50;;;1.40;;
59440;SDS011;45245;51.538;11.870;2022-08-06T06:01:03;1.40;;;1.30;;
59440;SDS011;45245;51.538;11.870;2022-08-06T06:03:29;1.40;;;1.30;;
59440;SDS011;45245;51.538;11.870;2022-08-06T06:05:55;1.27;;;0.82;;
59440;SDS011;45245;51.538;11.870;2022-08-06T06:08:21;2.03;;;1.25;;
59440;SDS011;45245;51.538;11.870;2022-08-06T06:10:47;3.90;;;1.50;;
59440;SDS011;45245;51.538;11.870;2022-08-06T06:13:12;1.45;;;1.33;;
59440;SDS011;45245;51.538;11.870;2022-08-06T06:15:41;1.73;;;1.52;;
59440;SDS011;45245;51.538;11.870;2022-08-06T06:18:17;2.40;;;1.77;;
59440;SDS011;45245;51.538;11.870;2022-08-06T06:24:50;1.40;;;1.30;;
59440;SDS011;45245;51.538;11.870;2022-08-06T06:35:22;2.47;;;1.20;;
59440;SDS011;45245;51.538;11.870;2022-08-06T06:43:27;3.95;;;1.38;;
59440;SDS011;45245;51.538;11.870;2022-08-06T06:46:02;1.27;;;1.17;;
59440;SDS011;45245;51.538;11.870;2022-08-06T06:48:36;3.47;;;1.30;;
59440;SDS011;45245;51.538;11.870;2022-08-06T06:51:23;1.73;;;1.63;;
59440;SDS011;45245;51.538;11.870;2022-08-06T06:53:51;3.40;;;1.77;;
59440;SDS011;45245;51.538;11.870;2022-08-06T06:56:19;3.30;;;1.50;;
59440;SDS011;45245;51.538;11.870;2022-08-06T07:01:44;3.78;;;1.17;;
59440;SDS011;45245;51.538;11.870;2022-08-06T07:04:10;1.45;;;1.33;;
59440;SDS011;45245;51.538;11.870;2022-08-06T07:06:38;2.20;;;1.30;;
59440;SDS011;45245;51.538;11.870;2022-08-06T07:09:05;4.55;;;1.35;;
59440;SDS011;45245;51.538;11.870;2022-08-06T07:11:31;1.00;;;0.98;;
59440;SDS011;45245;51.538;11.870;2022-08-06T07:13:58;2.63;;;1.35;;
59440;SDS011;45245;51.538;11.870;2022-08-06T07:16:24;1.45;;;1.35;;
59440;SDS011;45245;51.538;11.870;2022-08-06T07:18:51;3.45;;;1.60;;
59440;SDS011;45245;51.538;11.870;2022-08-06T07:21:18;1.25;;;1.20;;
59440;SDS011;45245;51.538;11.870;2022-08-06T07:23:45;2.45;;;1.30;;
59440;SDS011;45245;51.538;11.870;2022-08-06T07:26:14;3.90;;;1.13;;
59440;SDS011;45245;51.538;11.870;2022-08-06T07:28:42;2.88;;;1.25;;
59440;SDS011;45245;51.538;11.870;2022-08-06T07:31:08;1.77;;;1.60;;
59440;SDS011;45245;51.538;11.870;2022-08-06T07:33:37;3.40;;;1.30;;
59440;SDS011;45245;51.538;11.870;2022-08-06T07:36:03;1.40;;;1.15;;
59440;SDS011;45245;51.538;11.870;2022-08-06T07:38:31;4.13;;;1.75;;
59440;SDS011;45245;51.538;11.870;2022-08-06T07:41:01;3.55;;;1.20;;
59440;SDS011;45245;51.538;11.870;2022-08-06T07:43:28;1.63;;;1.17;;
59440;SDS011;45245;51.538;11.870;2022-08-06T07:45:58;1.52;;;1.17;;
59440;SDS011;45245;51.538;11.870;2022-08-06T07:48:26;2.35;;;1.10;;
59440;SDS011;45245;51.538;11.870;2022-08-06T07:50:53;1.48;;;1.20;;
59440;SDS011;45245;51.538;11.870;2022-08-06T07:53:19;3.85;;;1.40;;
59440;SDS011;45245;51.538;11.870;2022-08-06T07:55:46;1.80;;;1.10;;
59440;SDS011;45245;51.538;11.870;2022-08-06T07:58:12;1.23;;;1.10;;
59440;SDS011;45245;51.538;11.870;2022-08-06T08:00:39;1.10;;;1.00;;
59440;SDS011;45245;51.538;11.870;2022-08-06T08:03:05;1.48;;;1.38;;
59440;SDS011;45245;51.538;11.870;2022-08-06T08:05:49;1.48;;;1.10;;
59440;SDS011;45245;51.538;11.870;2022-08-06T08:08:33;1.40;;;1.05;;
59440;SDS011;45245;51.538;11.870;2022-08-06T08:10:58;1.83;;;1.10;;
59440;SDS011;45245;51.538;11.870;2022-08-06T08:13:24;1.30;;;1.20;;
59440;SDS011;45245;51.538;11.870;2022-08-06T08:15:50;2.25;;;1.45;;
59440;SDS011;45245;51.538;11.870;2022-08-06T08:18:16;1.60;;;1.38;;
59440;SDS011;45245;51.538;11.870;2022-08-06T08:20:42;1.13;;;1.02;;
59440;SDS011;45245;51.538;11.870;2022-08-06T08:23:09;0.80;;;0.80;;
59440;SDS011;45245;51.538;11.870;2022-08-06T08:25:37;2.47;;;0.80;;
59440;SDS011;45245;51.538;11.870;2022-08-06T08:28:02;1.17;;;0.75;;
59440;SDS011;45245;51.538;11.870;2022-08-06T08:30:29;2.45;;;0.80;;
59440;SDS011;45245;51.538;11.870;2022-08-06T08:32:55;1.77;;;1.05;;
59440;SDS011;45245;51.538;11.870;2022-08-06T08:35:20;1.55;;;0.93;;
59440;SDS011;45245;51.538;11.870;2022-08-06T08:37:46;1.35;;;0.90;;
59440;SDS011;45245;51.538;11.870;2022-08-06T08:40:11;1.55;;;0.82;;
59440;SDS011;45245;51.538;11.870;2022-08-06T08:42:39;1.48;;;1.05;;
59440;SDS011;45245;51.538;11.870;2022-08-06T08:45:05;1.67;;;0.80;;
59440;SDS011;45245;51.538;11.870;2022-08-06T08:47:31;1.15;;;0.75;;
59440;SDS011;45245;51.538;11.870;2022-08-06T08:49:58;1.60;;;0.80;;
59440;SDS011;45245;51.538;11.870;2022-08-06T08:52:28;2.25;;;0.90;;
59440;SDS011;45245;51.538;11.870;2022-08-06T08:55:04;1.85;;;0.80;;
59440;SDS011;45245;51.538;11.870;2022-08-06T08:57:31;0.75;;;0.70;;
59440;SDS011;45245;51.538;11.870;2022-08-06T08:59:58;2.88;;;1.00;;
59440;SDS011;45245;51.538;11.870;2022-08-06T09:02:24;2.47;;;0.90;;
59440;SDS011;45245;51.538;11.870;2022-08-06T09:04:52;0.85;;;0.82;;
59440;SDS011;45245;51.538;11.870;2022-08-06T09:07:17;2.42;;;0.82;;
59440;SDS011;45245;51.538;11.870;2022-08-06T09:09:43;3.00;;;1.13;;
59440;SDS011;45245;51.538;11.870;2022-08-06T09:12:09;1.58;;;1.00;;
59440;SDS011;45245;51.538;11.870;2022-08-06T09:14:34;1.30;;;1.20;;
59440;SDS011;45245;51.538;11.870;2022-08-06T09:17:01;1.65;;;0.88;;
59440;SDS011;45245;51.538;11.870;2022-08-06T09:19:27;1.20;;;0.82;;
59440;SDS011;45245;51.538;11.870;2022-08-06T09:21:57;1.15;;;0.80;;
59440;SDS011;45245;51.538;11.870;2022-08-06T09:24:23;1.30;;;0.90;;
59440;SDS011;45245;51.538;11.870;2022-08-06T09:27:02;1.95;;;1.10;;
59440;SDS011;45245;51.538;11.870;2022-08-06T09:29:29;2.40;;;0.80;;
59440;SDS011;45245;51.538;11.870;2022-08-06T09:31:56;1.60;;;0.73;;
59440;SDS011;45245;51.538;11.870;2022-08-06T09:34:21;1.13;;;0.88;;
59440;SDS011;45245;51.538;11.870;2022-08-06T09:36:56;1.75;;;1.10;;
59440;SDS011;45245;51.538;11.870;2022-08-06T09:39:35;1.13;;;1.00;;
59440;SDS011;45245;51.538;11.870;2022-08-06T09:42:09;2.55;;;0.98;;
59440;SDS011;45245;51.538;11.870;2022-08-06T09:44:34;1.23;;;0.80;;
59440;SDS011;45245;51.538;11.870;2022-08-06T09:47:00;2.00;;;0.80;;
59440;SDS011;45245;51.538;11.870;2022-08-06T09:49:26;1.38;;;1.15;;
59440;SDS011;45245;51.538;11.870;2022-08-06T09:54:37;1.70;;;0.57;;
59440;SDS011;45245;51.538;11.870;2022-08-06T09:57:03;0.70;;;0.60;;
59440;SDS011;45245;51.538;11.870;2022-08-06T09:59:28;1.58;;;1.00;;
59440;SDS011;45245;51.538;11.870;2022-08-06T10:02:11;0.80;;;0.80;;
59440;SDS011;45245;51.538;11.870;2022-08-06T10:04:38;0.68;;;0.68;;
59440;SDS011;45245;51.538;11.870;2022-08-06T10:07:03;0.70;;;0.68;;
59440;SDS011;45245;51.538;11.870;2022-08-06T10:09:29;0.60;;;0.60;;
59440;SDS011;45245;51.538;11.870;2022-08-06T10:11:57;2.67;;;0.70;;
59440;SDS011;45245;51.538;11.870;2022-08-06T10:14:27;3.95;;;0.85;;
59440;SDS011;45245;51.538;11.870;2022-08-06T10:19:31;1.30;;;0.70;;
59440;SDS011;45245;51.538;11.870;2022-08-06T10:22:06;1.90;;;0.52;;
59440;SDS011;45245;51.538;11.870;2022-08-06T10:24:35;2.17;;;0.88;;
59440;SDS011;45245;51.538;11.870;2022-08-06T10:27:05;0.77;;;0.77;;
59440;SDS011;45245;51.538;11.870;2022-08-06T10:29:32;0.60;;;0.50;;
59440;SDS011;45245;51.538;11.870;2022-08-06T10:31:58;1.13;;;0.70;;
59440;SDS011;45245;51.538;11.870;2022-08-06T10:34:24;1.33;;;0.68;;
59440;SDS011;45245;51.538;11.870;2022-08-06T10:36:54;1.23;;;0.85;;
59440;SDS011;45245;51.538;11.870;2022-08-06T10:39:25;1.10;;;0.70;;
59440;SDS011;45245;51.538;11.870;2022-08-06T10:41:52;2.63;;;1.13;;
59440;SDS011;45245;51.538;11.870;2022-08-06T10:44:19;1.38;;;0.73;;
59440;SDS011;45245;51.538;11.870;2022-08-06T10:46:45;0.90;;;0.50;;
59440;SDS011;45245;51.538;11.870;2022-08-06T10:49:11;1.48;;;0.60;;
59440;SDS011;45245;51.538;11.870;2022-08-06T10:51:36;2.10;;;0.63;;
59440;SDS011;45245;51.538;11.870;2022-08-06T10:54:02;0.93;;;0.63;;
59440;SDS011;45245;51.538;11.870;2022-08-06T10:56:28;2.22;;;0.60;;
59440;SDS011;45245;51.538;11.870;2022-08-06T10:58:53;0.85;;;0.63;;
59440;SDS011;45245;51.538;11.870;2022-08-06T11:01:36;0.82;;;0.60;;
59440;SDS011;45245;51.538;11.870;2022-08-06T11:15:41;4.88;;;0.70;;
59440;SDS011;45245;51.538;11.870;2022-08-06T11:18:08;1.38;;;0.50;;
59440;SDS011;45245;51.538;11.870;2022-08-06T11:20:35;1.42;;;0.75;;
59440;SDS011;45245;51.538;11.870;2022-08-06T11:25:48;0.68;;;0.50;;
59440;SDS011;45245;51.538;11.870;2022-08-06T11:29:03;1.42;;;0.68;;
59440;SDS011;45245;51.538;11.870;2022-08-06T11:31:04;1.33;;;0.60;;
59440;SDS011;45245;51.538;11.870;2022-08-06T11:36:02;1.70;;;0.40;;
59440;SDS011;45245;51.538;11.870;2022-08-06T11:43:48;1.10;;;0.50;;
59440;SDS011;45245;51.538;11.870;2022-08-06T11:46:29;0.40;;;0.40;;
59440;SDS011;45245;51.538;11.870;2022-08-06T11:57:17;1.60;;;0.38;;
59440;SDS011;45245;51.538;11.870;2022-08-06T12:01:58;0.60;;;0.50;;
59440;SDS011;45245;51.538;11.870;2022-08-06T12:07:15;0.60;;;0.43;;
59440;SDS011;45245;51.538;11.870;2022-08-06T12:23:13;0.85;;;0.60;;
59440;SDS011;45245;51.538;11.870;2022-08-06T12:25:41;2.17;;;0.40;;
59440;SDS011;45245;51.538;11.870;2022-08-06T12:28:10;1.17;;;0.50;;
59440;SDS011;45245;51.538;11.870;2022-08-06T12:30:48;1.70;;;0.50;;
59440;SDS011;45245;51.538;11.870;2022-08-06T12:33:15;1.52;;;0.30;;
59440;SDS011;45245;51.538;11.870;2022-08-06T12:35:48;0.85;;;0.40;;
59440;SDS011;45245;51.538;11.870;2022-08-06T12:38:13;1.75;;;0.90;;
59440;SDS011;45245;51.538;11.870;2022-08-06T12:40:39;1.80;;;0.50;;
59440;SDS011;45245;51.538;11.870;2022-08-06T12:45:30;0.73;;;0.50;;
59440;SDS011;45245;51.538;11.870;2022-08-06T12:48:04;2.30;;;0.47;;
59440;SDS011;45245;51.538;11.870;2022-08-06T12:50:35;1.23;;;0.70;;
59440;SDS011;45245;51.538;11.870;2022-08-06T12:55:31;0.82;;;0.30;;
59440;SDS011;45245;51.538;11.870;2022-08-06T12:58:00;2.38;;;0.55;;
59440;SDS011;45245;51.538;11.870;2022-08-06T13:00:26;0.30;;;0.30;;
59440;SDS011;45245;51.538;11.870;2022-08-06T13:02:52;0.65;;;0.43;;
59440;SDS011;45245;51.538;11.870;2022-08-06T13:05:19;1.90;;;0.40;;
59440;SDS011;45245;51.538;11.870;2022-08-06T13:07:45;0.60;;;0.50;;
59440;SDS011;45245;51.538;11.870;2022-08-06T13:10:11;1.48;;;0.40;;
59440;SDS011;45245;51.538;11.870;2022-08-06T13:12:37;0.93;;;0.47;;
59440;SDS011;45245;51.538;11.870;2022-08-06T13:15:10;0.60;;;0.47;;
59440;SDS011;45245;51.538;11.870;2022-08-06T13:17:36;2.15;;;0.82;;
59440;SDS011;45245;51.538;11.870;2022-08-06T13:20:02;2.33;;;0.57;;
59440;SDS011;45245;51.538;11.870;2022-08-06T13:22:27;0.55;;;0.40;;
59440;SDS011;45245;51.538;11.870;2022-08-06T13:25:12;0.38;;;0.38;;
59440;SDS011;45245;51.538;11.870;2022-08-06T13:27:38;1.20;;;0.75;;
59440;SDS011;45245;51.538;11.870;2022-08-06T13:30:05;1.27;;;0.30;;
59440;SDS011;45245;51.538;11.870;2022-08-06T13:32:32;0.75;;;0.52;;
59440;SDS011;45245;51.538;11.870;2022-08-06T13:34:58;2.92;;;0.63;;
59440;SDS011;45245;51.538;11.870;2022-08-06T13:40:07;0.77;;;0.30;;
59440;SDS011;45245;51.538;11.870;2022-08-06T13:42:32;0.80;;;0.65;;
59440;SDS011;45245;51.538;11.870;2022-08-06T13:44:58;0.65;;;0.40;;
59440;SDS011;45245;51.538;11.870;2022-08-06T13:47:27;0.77;;;0.40;;
59440;SDS011;45245;51.538;11.870;2022-08-06T13:49:53;1.00;;;0.40;;
59440;SDS011;45245;51.538;11.870;2022-08-06T13:52:19;1.17;;;0.32;;
59440;SDS011;45245;51.538;11.870;2022-08-06T13:54:44;0.55;;;0.20;;
59440;SDS011;45245;51.538;11.870;2022-08-06T13:57:09;0.52;;;0.40;;
59440;SDS011;45245;51.538;11.870;2022-08-06T13:59:36;1.20;;;0.60;;
59440;SDS011;45245;51.538;11.870;2022-08-06T14:02:03;1.38;;;0.50;;
59440;SDS011;45245;51.538;11.870;2022-08-06T14:04:28;1.05;;;0.20;;
59440;SDS011;45245;51.538;11.870;2022-08-06T14:06:55;0.82;;;0.40;;
59440;SDS011;45245;51.538;11.870;2022-08-06T14:09:22;0.30;;;0.20;;
59440;SDS011;45245;51.538;11.870;2022-08-06T14:11:50;1.98;;;0.43;;
59440;SDS011;45245;51.538;11.870;2022-08-06T14:14:18;1.88;;;0.32;;
59440;SDS011;45245;51.538;11.870;2022-08-06T14:16:43;1.02;;;0.30;;
59440;SDS011;45245;51.538;11.870;2022-08-06T14:19:09;0.70;;;0.30;;
59440;SDS011;45245;51.538;11.870;2022-08-06T14:21:34;1.15;;;0.43;;
59440;SDS011;45245;51.538;11.870;2022-08-06T14:24:00;1.38;;;0.30;;
59440;SDS011;45245;51.538;11.870;2022-08-06T14:26:25;0.68;;;0.35;;
59440;SDS011;45245;51.538;11.870;2022-08-06T14:28:50;0.55;;;0.30;;
59440;SDS011;45245;51.538;11.870;2022-08-06T14:31:16;1.30;;;0.50;;
59440;SDS011;45245;51.538;11.870;2022-08-06T14:33:41;0.82;;;0.50;;
59440;SDS011;45245;51.538;11.870;2022-08-06T14:36:07;1.13;;;0.50;;
59440;SDS011;45245;51.538;11.870;2022-08-06T14:38:32;0.30;;;0.20;;
59440;SDS011;45245;51.538;11.870;2022-08-06T14:40:59;2.33;;;0.30;;
59440;SDS011;45245;51.538;11.870;2022-08-06T14:43:43;0.50;;;0.50;;
59440;SDS011;45245;51.538;11.870;2022-08-06T14:46:29;0.65;;;0.40;;
59440;SDS011;45245;51.538;11.870;2022-08-06T14:48:55;0.73;;;0.40;;
59440;SDS011;45245;51.538;11.870;2022-08-06T14:51:20;0.45;;;0.45;;
59440;SDS011;45245;51.538;11.870;2022-08-06T14:53:46;1.48;;;0.75;;
59440;SDS011;45245;51.538;11.870;2022-08-06T14:56:11;0.82;;;0.30;;
59440;SDS011;45245;51.538;11.870;2022-08-06T14:58:37;0.65;;;0.40;;
59440;SDS011;45245;51.538;11.870;2022-08-06T15:01:02;0.85;;;0.38;;
59440;SDS011;45245;51.538;11.870;2022-08-06T15:03:27;1.27;;;0.38;;
59440;SDS011;45245;51.538;11.870;2022-08-06T15:05:53;1.33;;;0.50;;
59440;SDS011;45245;51.538;11.870;2022-08-06T15:08:19;0.40;;;0.40;;
59440;SDS011;45245;51.538;11.870;2022-08-06T15:10:44;0.50;;;0.40;;
59440;SDS011;45245;51.538;11.870;2022-08-06T15:13:09;0.82;;;0.57;;
59440;SDS011;45245;51.538;11.870;2022-08-06T15:15:35;0.90;;;0.47;;
59440;SDS011;45245;51.538;11.870;2022-08-06T15:18:00;0.93;;;0.35;;
59440;SDS011;45245;51.538;11.870;2022-08-06T15:20:25;0.57;;;0.45;;
59440;SDS011;45245;51.538;11.870;2022-08-06T15:22:51;2.65;;;0.60;;
59440;SDS011;45245;51.538;11.870;2022-08-06T15:25:17;1.25;;;0.70;;
59440;SDS011;45245;51.538;11.870;2022-08-06T15:27:46;0.30;;;0.30;;
59440;SDS011;45245;51.538;11.870;2022-08-06T15:30:13;0.75;;;0.45;;
59440;SDS011;45245;51.538;11.870;2022-08-06T15:32:38;0.40;;;0.40;;
59440;SDS011;45245;51.538;11.870;2022-08-06T15:35:04;0.88;;;0.73;;
59440;SDS011;45245;51.538;11.870;2022-08-06T15:37:30;0.80;;;0.40;;
59440;SDS011;45245;51.538;11.870;2022-08-06T15:39:55;0.82;;;0.43;;
59440;SDS011;45245;51.538;11.870;2022-08-06T15:42:22;0.60;;;0.40;;
59440;SDS011;45245;51.538;11.870;2022-08-06T15:44:48;2.17;;;0.45;;
59440;SDS011;45245;51.538;11.870;2022-08-06T15:47:13;0.70;;;0.70;;
59440;SDS011;45245;51.538;11.870;2022-08-06T15:49:39;0.52;;;0.30;;
59440;SDS011;45245;51.538;11.870;2022-08-06T15:52:04;1.27;;;0.63;;
59440;SDS011;45245;51.538;11.870;2022-08-06T15:54:30;1.13;;;0.82;;
59440;SDS011;45245;51.538;11.870;2022-08-06T15:56:55;1.25;;;0.43;;
59440;SDS011;45245;51.538;11.870;2022-08-06T15:59:21;1.92;;;0.68;;
59440;SDS011;45245;51.538;11.870;2022-08-06T16:01:47;0.70;;;0.47;;
59440;SDS011;45245;51.538;11.870;2022-08-06T16:04:12;1.98;;;0.60;;
59440;SDS011;45245;51.538;11.870;2022-08-06T16:06:38;0.63;;;0.40;;
59440;SDS011;45245;51.538;11.870;2022-08-06T16:09:03;1.13;;;0.63;;